| time (UTC) | temp F | wind direction | speed knots | gust knots | rain 1hr in | rain 24hr in | rain mn in | humidity % | barometer mb |
| 20260507134531 | 68 | 359 | 12.2 | 17.4 | 0.00 | 0.00 | 0.00 | 42 | 1015.6 |
| 20260507133030 | 66 | 359 | 12.2 | 20.0 | 0.00 | 0.00 | 0.00 | 45 | 1015.9 |
| 20260507131501 | 66 | 359 | 11.3 | 18.2 | 0.00 | 0.00 | 0.00 | 45 | 1016.0 |
| 20260507130111 | 66 | 359 | 14.8 | 20.0 | 0.00 | 0.00 | 0.00 | 46 | 1016.1 |
| 20260507124635 | 65 | 359 | 12.2 | 20.0 | 0.00 | 0.00 | 0.00 | 47 | 1016.2 |
| 20260507123103 | 65 | 359 | 12.2 | 20.0 | 0.00 | 0.00 | 0.00 | 48 | 1016.2 |
| 20260507121555 | 66 | 359 | 10.4 | 15.6 | 0.00 | 0.00 | 0.00 | 47 | 1016.4 |
| 20260507120053 | 67 | 359 | 9.6 | 13.9 | 0.00 | 0.00 | 0.00 | 49 | 1016.5 |
| 20260507114607 | 66 | 359 | 9.6 | 14.8 | 0.00 | 0.00 | 0.00 | 49 | 1016.6 |
| 20260507113054 | 67 | 359 | 9.6 | 13.9 | 0.00 | 0.00 | 0.00 | 49 | 1016.5 |
| 20260507111548 | 68 | 359 | 6.1 | 10.4 | 0.00 | 0.00 | 0.00 | 48 | 1016.6 |
| 20260507110048 | 67 | 359 | 1.7 | 7.8 | 0.00 | 0.00 | 0.00 | 50 | 1016.6 |
| 20260507104517 | 68 | 359 | 0.9 | 4.3 | 0.00 | 0.00 | 0.00 | 50 | 1016.5 |
| 20260507103013 | 67 | 359 | 0.9 | 4.3 | 0.00 | 0.00 | 0.00 | 52 | 1016.5 |
| 20260507101507 | 66 | 185 | 0.9 | 3.5 | 0.00 | 0.00 | 0.00 | 54 | 1016.5 |
| 20260507100004 | 65 | 359 | 0.9 | 3.5 | 0.00 | 0.00 | 0.00 | 55 | 1016.6 |
| 20260507094600 | 64 | 359 | 0.0 | 2.6 | 0.00 | 0.00 | 0.00 | 57 | 1016.7 |
| 20260507093059 | 64 | 359 | 0.0 | 3.5 | 0.00 | 0.00 | 0.00 | 57 | 1016.7 |
| 20260507091554 | 63 | 359 | 0.0 | 3.5 | 0.00 | 0.00 | 0.00 | 59 | 1016.7 |
| 20260507090050 | 61 | 359 | 0.9 | 2.6 | 0.00 | 0.00 | 0.00 | 60 | 1016.7 |
| 20260507084550 | 61 | 359 | 0.0 | 7.0 | 0.00 | 0.00 | 0.00 | 59 | 1016.6 |
| 20260507083047 | 61 | 359 | 2.6 | 7.0 | 0.00 | 0.00 | 0.00 | 59 | 1016.4 |
| 20260507081544 | 61 | 359 | 0.9 | 4.3 | 0.00 | 0.00 | 0.00 | 59 | 1016.4 |
| 20260507080038 | 60 | 359 | 1.7 | 7.8 | 0.00 | 0.00 | 0.00 | 57 | 1016.2 |
| 20260507074537 | 58 | 359 | 0.9 | 7.0 | 0.00 | 0.00 | 0.00 | 57 | 1016.1 |
| 20260507073030 | 56 | 359 | 4.3 | 8.7 | 0.00 | 0.00 | 0.00 | 58 | 1016.0 |
| 20260507071528 | 55 | 359 | 5.2 | 9.6 | 0.00 | 0.00 | 0.00 | 59 | 1015.9 |
| 20260507070109 | 54 | 359 | 4.3 | 10.4 | 0.00 | 0.00 | 0.00 | 59 | 1015.9 |
| 20260507064559 | 54 | 359 | 6.1 | 10.4 | 0.00 | 0.00 | 0.00 | 58 | 1015.7 |
| 20260507063052 | 55 | 359 | 4.3 | 9.6 | 0.00 | 0.00 | 0.00 | 58 | 1015.6 |
| 20260507061535 | 54 | 359 | 3.5 | 9.6 | 0.00 | 0.00 | 0.00 | 58 | 1015.4 |
| 20260507060040 | 54 | 359 | 0.9 | 5.2 | 0.00 | 0.00 | 0.00 | 59 | 1015.3 |
| 20260507054626 | 54 | 354 | 0.9 | 5.2 | 0.00 | 0.00 | 0.00 | 59 | 1015.3 |
| 20260507053032 | 54 | 359 | 0.9 | 3.5 | 0.00 | 0.00 | 0.00 | 59 | 1015.3 |
| 20260507051532 | 54 | 359 | 0.9 | 4.3 | 0.00 | 0.00 | 0.00 | 58 | 1015.2 |
| 20260507050035 | 55 | 359 | 0.9 | 4.3 | 0.00 | 0.00 | 0.00 | 58 | 1015.1 |
| 20260507044530 | 55 | 354 | 0.9 | 4.3 | 0.00 | 0.00 | 0.00 | 58 | 1015.0 |
| 20260507043058 | 55 | 359 | 0.9 | 3.5 | 0.00 | 0.00 | 0.00 | 58 | 1015.0 |
| 20260507041558 | 55 | 359 | 0.9 | 4.3 | 0.00 | 0.00 | 0.00 | 58 | 1015.0 |
| 20260507040049 | 55 | 359 | 0.0 | 5.2 | 0.00 | 0.00 | 0.00 | 58 | 1014.9 |
| 20260507034549 | 56 | 359 | 1.7 | 4.3 | 0.00 | 0.00 | 0.00 | 58 | 1014.9 |
| 20260507033047 | 56 | 359 | 3.5 | 7.8 | 0.00 | 0.00 | 0.00 | 57 | 1014.7 |
| 20260507031521 | 57 | 359 | 1.7 | 5.2 | 0.00 | 0.00 | 0.00 | 56 | 1014.8 |
| 20260507030020 | 57 | 359 | 1.7 | 7.0 | 0.00 | 0.00 | 0.00 | 55 | 1014.6 |
| 20260507024524 | 58 | 359 | 4.3 | 10.4 | 0.00 | 0.00 | 0.00 | 55 | 1014.6 |
| 20260507023051 | 58 | 359 | 3.5 | 9.6 | 0.00 | 0.00 | 0.00 | 55 | 1014.6 |
| 20260507021551 | 58 | 359 | 3.5 | 11.3 | 0.00 | 0.00 | 0.00 | 55 | 1014.5 |
| 20260507020048 | 58 | 359 | 2.6 | 9.6 | 0.00 | 0.00 | 0.00 | 55 | 1014.5 |
| 20260507014552 | 59 | 359 | 2.6 | 8.7 | 0.00 | 0.00 | 0.00 | 55 | 1014.6 |
| 20260507013054 | 59 | 359 | 3.5 | 9.6 | 0.00 | 0.00 | 0.00 | 55 | 1014.7 |
| 20260507011546 | 59 | 359 | 5.2 | 10.4 | 0.00 | 0.00 | 0.00 | 55 | 1014.9 |
| 20260507010053 | 59 | 359 | 7.0 | 12.2 | 0.00 | 0.00 | 0.00 | 55 | 1015.0 |
| 20260507004546 | 59 | 359 | 7.0 | 12.2 | 0.00 | 0.00 | 0.00 | 56 | 1015.0 |
| 20260507003042 | 59 | 359 | 7.0 | 13.0 | 0.00 | 0.00 | 0.00 | 55 | 1015.1 |
| 20260507001544 | 60 | 359 | 7.8 | 13.0 | 0.00 | 0.00 | 0.00 | 54 | 1015.2 |
| 20260507000015 | 61 | 359 | 8.7 | 13.0 | 0.00 | 0.00 | 0.00 | 53 | 1015.4 |
| 20260506234518 | 61 | 359 | 5.2 | 9.6 | 0.00 | 0.00 | 0.00 | 53 | 1015.5 |
| 20260506233006 | 61 | 359 | 2.6 | 7.0 | 0.00 | 0.00 | 0.00 | 53 | 1015.7 |
| 20260506231506 | 62 | 359 | 2.6 | 7.0 | 0.00 | 0.00 | 0.00 | 52 | 1015.8 |
| 20260506230005 | 62 | 359 | 2.6 | 7.0 | 0.00 | 0.00 | 0.00 | 52 | 1015.8 |
| 20260506224508 | 63 | 359 | 2.6 | 7.0 | 0.00 | 0.00 | 0.00 | 52 | 1015.8 |
| 20260506223038 | 63 | 359 | 1.7 | 7.0 | 0.00 | 0.00 | 0.00 | 51 | 1015.9 |
| 20260506221538 | 64 | 359 | 3.5 | 5.2 | 0.00 | 0.00 | 0.00 | 52 | 1015.8 |
| 20260506220036 | 64 | 359 | 3.5 | 8.7 | 0.00 | 0.00 | 0.00 | 52 | 1015.8 |
| 20260506214531 | 65 | 359 | 3.5 | 8.7 | 0.00 | 0.00 | 0.00 | 54 | 1015.8 |
| 20260506213031 | 64 | 359 | 4.3 | 7.8 | 0.00 | 0.00 | 0.00 | 58 | 1015.8 |
| 20260506211531 | 63 | 359 | 2.6 | 5.2 | 0.00 | 0.00 | 0.00 | 61 | 1015.6 |
| 20260506210022 | 63 | 359 | 3.5 | 5.2 | 0.00 | 0.00 | 0.00 | 61 | 1015.6 |
| 20260506204512 | 63 | 359 | 2.6 | 5.2 | 0.00 | 0.00 | 0.00 | 60 | 1015.3 |
| 20260506203113 | 63 | 359 | 1.7 | 7.0 | 0.00 | 0.00 | 0.00 | 60 | 1014.9 |
| 20260506201533 | 63 | 359 | 3.5 | 7.0 | 0.00 | 0.00 | 0.00 | 60 | 1015.0 |
| 20260506200037 | 63 | 359 | 6.1 | 7.8 | 0.00 | 0.00 | 0.00 | 60 | 1014.8 |
| 20260506194527 | 64 | 359 | 5.2 | 9.6 | 0.00 | 0.00 | 0.00 | 59 | 1014.7 |
| 20260506193028 | 64 | 359 | 5.2 | 12.2 | 0.00 | 0.00 | 0.00 | 59 | 1014.6 |
| 20260506191525 | 64 | 359 | 6.1 | 12.2 | 0.00 | 0.00 | 0.00 | 57 | 1014.6 |
| 20260506190124 | 65 | 359 | 9.6 | 13.9 | 0.00 | 0.00 | 0.00 | 56 | 1014.5 |
| 20260506184602 | 65 | 359 | 10.4 | 14.8 | 0.00 | 0.00 | 0.00 | 55 | 1014.5 |
| 20260506183054 | 66 | 359 | 9.6 | 17.4 | 0.00 | 0.00 | 0.00 | 54 | 1014.5 |
| 20260506181524 | 66 | 359 | 11.3 | 18.2 | 0.00 | 0.00 | 0.00 | 51 | 1014.5 |
| 20260506180022 | 66 | 359 | 11.3 | 18.2 | 0.00 | 0.00 | 0.00 | 48 | 1014.7 |
| 20260506174553 | 66 | 359 | 12.2 | 20.9 | 0.00 | 0.00 | 0.00 | 45 | 1014.7 |
| 20260506173105 | 67 | 359 | 11.3 | 20.9 | 0.00 | 0.00 | 0.00 | 45 | 1014.8 |
| 20260506171552 | 67 | 359 | 11.3 | 20.9 | 0.00 | 0.00 | 0.00 | 44 | 1014.9 |
| 20260506170056 | 66 | 359 | 14.8 | 20.0 | 0.00 | 0.00 | 0.00 | 45 | 1015.0 |
| 20260506164558 | 67 | 359 | 13.9 | 20.0 | 0.00 | 0.00 | 0.00 | 43 | 1015.0 |
| 20260506163046 | 68 | 359 | 12.2 | 20.9 | 0.00 | 0.00 | 0.00 | 39 | 1015.2 |
| 20260506161514 | 68 | 359 | 15.6 | 21.7 | 0.00 | 0.00 | 0.00 | 37 | 1015.1 |
| 20260506160016 | 68 | 359 | 13.9 | 21.7 | 0.00 | 0.00 | 0.00 | 38 | 1015.2 |
| 20260506154506 | 68 | 359 | 13.0 | 21.7 | 0.00 | 0.00 | 0.00 | 39 | 1015.3 |
| 20260506153041 | 68 | 359 | 13.9 | 18.2 | 0.00 | 0.00 | 0.00 | 40 | 1015.4 |
| 20260506151511 | 68 | 359 | 12.2 | 21.7 | 0.00 | 0.00 | 0.00 | 42 | 1015.4 |
| 20260506150011 | 68 | 359 | 14.8 | 19.1 | 0.00 | 0.00 | 0.00 | 42 | 1015.7 |
| 20260506144505 | 68 | 359 | 13.0 | 20.0 | 0.00 | 0.00 | 0.00 | 43 | 1015.9 |
| 20260506143006 | 69 | 359 | 11.3 | 19.1 | 0.00 | 0.00 | 0.00 | 39 | 1016.1 |
| 20260506141501 | 69 | 359 | 12.2 | 18.2 | 0.00 | 0.00 | 0.00 | 39 | 1016.2 |
| 20260506140100 | 70 | 359 | 8.7 | 16.5 | 0.00 | 0.00 | 0.00 | 41 | 1016.4 |